Observations for LIVERPOOL AIRPORT, United Kingdom (EGGP)

EGGP 280520Z 06010KT 9999 -RA FEW008 BKN026 13/12 Q1001 
EGGP 280450Z 06010KT 9999 -RA FEW015 BKN025 13/12 Q1001 
EGGP 280420Z 05011KT 9999 -RA SCT009 BKN017 13/12 Q1001 
EGGP 280350Z 06011KT 9999 -RA SCT009 BKN017 13/12 Q1001 
EGGP 280320Z 06010KT 9999 -RA SCT009 BKN017 13/12 Q1001 
EGGP 280250Z 06009KT 9999 -RA SCT009 BKN017 13/12 Q1001 
EGGP 280220Z 07009KT 9999 BKN016 14/12 Q1001
EGGP 280150Z 08009KT 9999 BKN016 14/13 Q1002
EGGP 280120Z 09010KT 9999 BKN016 14/12 Q1002
EGGP 280050Z 08009KT 9999 BKN013 14/12 Q1002
EGGP 280020Z 08010KT 9999 BKN013 15/12 Q1003
EGGP 272350Z 07009KT 9999 BKN013 15/13 Q1003
EGGP 272320Z 08009KT 9999 BKN012 14/12 Q1003
EGGP 272250Z 08009KT 9999 SCT012 BKN024 15/13 Q1003 
EGGP 272220Z 09009KT 9999 BKN013 15/13 Q1003
EGGP 272150Z 08009KT 9999 BKN012 15/14 Q1003
EGGP 272120Z 10008KT 9999 BKN012 15/13 Q1003
EGGP 272050Z 09009KT 9999 SCT015 BKN029 16/13 Q1003 
EGGP 272020Z 10009KT 9999 SCT018 BKN022 16/14 Q1003 
EGGP 271950Z 11007KT 9999 FEW019 SCT029 16/14 Q1003 
EGGP 271920Z 11008KT 9999 FEW036 BKN049 17/14 Q1003 
EGGP 271850Z 11009KT 9999 SCT021 17/14 Q1004
EGGP 271820Z 11008KT 9999 SCT022 17/14 Q1004
EGGP 271750Z 11009KT 9999 FEW024 BKN036 18/14 Q1004 
EGGP 271720Z 12009KT 9999 FEW021 BKN034 18/14 Q1004 
EGGP 271650Z 12008KT 9999 BKN023 17/13 Q1004
EGGP 271620Z 13008KT 9999 BKN033 17/13 Q1004
EGGP 271550Z 12009KT 9999 BKN024 18/13 Q1005
EGGP 271520Z 13008KT 9999 BKN026 18/13 Q1005
EGGP 271450Z 13009KT 100V160 9999 BKN026 18/13 Q1005
EGGP 271420Z 12009KT 090V150 9999 BKN026 17/13 Q1005
EGGP 271350Z 12010KT 9999 SCT022 17/13 Q1006
EGGP 271320Z 13008KT 100V170 9999 SCT022 17/13 Q1006
EGGP 271250Z 12009KT 9999 FEW022 17/13 Q1006
EGGP 271220Z 11008KT 9999 FEW024 BKN048 17/14 Q1006 
EGGP 271150Z 11009KT 9999 -RA FEW021 BKN039 15/12 Q1006 
EGGP 271120Z 12010KT 9999 FEW021 BKN039 15/13 Q1007 
EGGP 271050Z 11010KT 9999 FEW021 BKN039 15/12 Q1007 
EGGP 271020Z 12008KT 100V160 9999 -RA FEW010 BKN039 14/12 Q1007 
EGGP 270950Z 12008KT 9999 -RA FEW012 SCT021 BKN032 14/12 Q1007  
EGGP 270920Z 11007KT 9999 -RA FEW012 BKN021 13/11 Q1007 
EGGP 270850Z 10009KT 9000 -RA FEW008 BKN018 13/11 Q1008 
EGGP 270820Z 11010KT 9000 -RA FEW008 BKN018 12/11 Q1008 
EGGP 270750Z 11010KT 9000 -RA FEW003 BKN018 12/11 Q1008 
EGGP 270720Z 11011KT 9000 -RA BKN013 13/11 Q1008
EGGP 270650Z 10010KT 9000 -RA FEW003 BKN016 13/11 Q1008 
EGGP 270620Z 10009KT 9000 -RA FEW003 BKN016 13/11 Q1008 
EGGP 270550Z 11006KT 9999 -RA FEW003 BKN013 13/11 Q1008 
EGGP 270520Z 12007KT 9999 -RA BKN022 13/11 Q1008
EGGP 270450Z 12009KT 9999 -RA SCT019 BKN035 14/11 Q1008